Argyle, MO

11:09 PM CST on November 23, 2014 (GMT -0600)
Vienna, MO | Change Station
CLOSE
Current Station
Personal Weather Station
Location: Vienna, MO
Elevation: 830 ft
Nearby Weather Stations

Elev 830 ft 38.19 °N, 91.94 °W | Updated 9 minutes ago

Rain
Rain
47.5 °F
Feels Like 44 °F
N
7.3
Wind Variable Wind from ESE

Today
High -- | Low -- °F
--% Chance of Precip.
Yesterday
High -- | Low -- °F
Precip. -- in
6:57 AM 4:50 PM
Waxing Crescent, 3% visible
Pressure 29.25 in
Visibility 5.0 miles
Clouds Scattered Clouds 600 ft
Mostly Cloudy 1400 ft
Overcast 5500 ft
Windchill 44 °F
Dew Point 46 °F
Humidity 94%
Rainfall 0.70 in
Snow Depth Not available.
UV 0 out of 12
Pollen .30 out of 12
Air Quality Not available.
Flu Activity Not available.
SPECI KVIH 240505Z AUTO 28021G27KT 5SM +RA BR SCT006 BKN014 OVC055 11/11 A2925 RMK AO2 PK WND 29027/0505 P0006 T01110106

More Conditions Fewer Conditions

Pressure 29.25 in
Visibility 5.0 miles
Clouds Scattered Clouds 600 ft
Mostly Cloudy 1400 ft
Overcast 5500 ft
Windchill 44 °F
Dew Point 46 °F
Humidity 94%
Rainfall 0.70 in
Snow Depth Not available.
UV 0 out of 12
Pollen .30 out of 12
Air Quality Not available.
Flu Activity Not available.
SPECI KVIH 240505Z AUTO 28021G27KT 5SM +RA BR SCT006 BKN014 OVC055 11/11 A2925 RMK AO2 PK WND 29027/0505 P0006 T01110106

More Conditions Fewer Conditions

10-Day Weather Forecast

Almanac

Astronomy

Nov. 23, 2014 Rise Set
Actual Time
Civil Twilight
Nautical Twilight
Astronomical Twilight
Moon
Length of Visible Light
Length of Day
Tomorrow will be .
, % of the Moon is Illuminated

Today's Extremes

State Highs State Lows

Community

WunderPhotos

Upload Photos

1,773,269 photos uploaded!

WunderBlogs® & News

Nearby

Air Quality

  Air Quality AQ Index Pollutant
Not available.

Snow Depth

Station Depth Elevation

Earthquake Activity

City Distance Mag. Time & Date
Minimum magnitude displayed is 2.5.

Coastal Water Temperatures

Place Temperature

Nearby Weather Stations